メインページ
METAR-TAF:

METAR-TAF

空港 :

チャトラパティ・シヴァージー国際空港

ムンバイ, インド

緯度: 19-07N, 経度: 072-51E, 海抜: 8m

現時点の気象観測

当レポートは23分前の23:00(UTC)に作成
南東の風 4kt
気温 27°C
湿度 89%
気圧 1010 hPa
視程: 3000m
高度2000ftの雲は散在している
煙霧

METAR: VABB 242300Z 14004KT 3000 HZ SCT020 27/25 Q1010 NOSIG

時間: 04:53 (23:23 UTC)

予報

当レポートは3時間23分前の20:00(UTC)に作成
予報は24日の 21時(UTC)から 25日の 06時(UTC)まで有効
変向風 3kt
視程: 3000m
高度1800ftの雲はほとんどない
高度2500ftの雲は散在している
煙霧
24日の 21時(UTC)から 25日の 06時(UTC)まで一時的に
視程: 2000m
高度1200ftの雲はほとんどない
高度2500ftの雲はほとんどない, 塔状積雲.
高度8000ftの千切れ雲あり
弱いにわか雨, 小雨
25日の 00時(UTC)から 25日の 02時(UTC)まで徐々に
東/南東の風 5kt
視程: 2000m
靄, 煙霧
25日の 04時(UTC)から 25日の 06時(UTC)まで徐々に
の風 6kt
視程: 3000m
煙霧

TAF: VABB 242000Z 2421/2506 VRB03KT 3000 HZ FEW018 SCT025 TEMPO 2421/2506 2000 -SHRA -RA FEW012 FEW025TCU BKN080 BECMG 2500/2502 11005KT 2000 BR HZ BECMG 2504/2506 17006KT 3000 HZ

4,000以上の空港の気象観測と天気予報(METAR報とTAF報)

利用可能な観測所は地図上に黄色い丸と赤い丸で示す。

丸の上にカーソルを重ねると観測所名を参照できる。

次にクリックすると気象観測と天気予報を参照できる。

マップの切り替え:黒色「×」印の緑ボタンをクリックして拡大、「-」印の緑ボタンをクリックして縮小、緑色の三角印をクリックして隣りの地図に切り替え


METAR-TAF: